Time;durP1;ratioP1;P1;durP2;ratioP2;P2;SDS_P1;SDS_P2;PMS_P1;PMS_P2;Temp;Humidity;BMP_temperature;BMP_pressure;BME280_temperature;BME280_humidity;BME280_pressure;Samples;Min_cycle;Max_cycle;Signal;HPM_P1;HPM_P2
2023/08/03 00:02:09;;;;;;;21.73;15.23;;;;;;;-141.23;100.00;62281.09;4979761;28;20133;-72
2023/08/03 00:04:36;;;;;;;19.08;15.88;;;;;;;-141.23;100.00;62281.09;4978807;28;20153;-70
2023/08/03 00:07:02;;;;;;;20.02;14.45;;;;;;;-141.23;100.00;62281.09;4995909;28;20148;-70
2023/08/03 00:09:29;;;;;;;19.27;14.90;;;;;;;-141.23;100.00;62281.09;4979309;28;20120;-70
2023/08/03 00:11:55;;;;;;;17.67;14.65;;;;;;;-141.23;100.00;62281.09;4979313;28;20172;-70
2023/08/03 00:14:21;;;;;;;17.55;14.23;;;;;;;-141.23;100.00;62281.09;4962479;28;20045;-69
2023/08/03 00:16:46;;;;;;;18.77;14.38;;;;;;;-141.23;100.00;62281.09;4995296;28;20565;-70
2023/08/03 00:19:13;;;;;;;19.02;14.73;;;;;;;-141.23;100.00;62281.09;4985489;28;20472;-70
2023/08/03 00:21:39;;;;;;;16.08;14.23;;;;;;;-141.23;100.00;62281.09;5015874;28;20081;-75
2023/08/03 00:24:04;;;;;;;17.65;14.98;;;;;;;-141.23;100.00;62281.09;5016795;28;20084;-70
2023/08/03 00:26:30;;;;;;;17.58;14.68;;;;;;;-141.23;100.00;62281.09;5000123;28;20140;-69
2023/08/03 00:28:56;;;;;;;20.67;14.90;;;;;;;-141.23;100.00;62281.09;4999957;28;20099;-70
2023/08/03 00:31:23;;;;;;;20.05;14.30;;;;;;;-141.23;100.00;62281.09;5015864;28;20041;-69
2023/08/03 00:33:48;;;;;;;18.13;14.05;;;;;;;-141.23;100.00;62281.09;4999373;28;20139;-69
2023/08/03 00:36:15;;;;;;;20.52;14.18;;;;;;;-141.23;100.00;62281.09;5015621;28;20127;-73
2023/08/03 00:38:41;;;;;;;17.13;14.00;;;;;;;-141.23;100.00;62281.09;4999261;28;20072;-69
2023/08/03 00:41:07;;;;;;;20.05;15.13;;;;;;;-141.23;100.00;62281.09;4999510;28;20115;-71
2023/08/03 00:43:33;;;;;;;19.48;14.05;;;;;;;-141.23;100.00;62281.09;4999245;28;20485;-70
2023/08/03 00:45:59;;;;;;;20.30;14.50;;;;;;;-141.23;100.00;62281.09;4994709;28;20590;-70
2023/08/03 00:48:27;;;;;;;17.30;14.25;;;;;;;-141.23;100.00;62281.09;4963343;28;20046;-70
2023/08/03 00:50:52;;;;;;;17.30;14.57;;;;;;;-141.23;100.00;62281.09;4978715;28;20054;-70
2023/08/03 00:53:20;;;;;;;18.65;13.70;;;;;;;-141.23;100.00;62281.09;4946640;28;20100;-71
2023/08/03 00:55:46;;;;;;;16.25;13.93;;;;;;;-141.23;100.00;62281.09;4962726;28;20446;-70
2023/08/03 00:58:13;;;;;;;15.82;13.45;;;;;;;-141.23;100.00;62281.09;4978394;28;20052;-70
2023/08/03 01:00:39;;;;;;;19.55;13.70;;;;;;;-141.23;100.00;62281.09;4994935;28;20097;-71
2023/08/03 01:03:05;;;;;;;18.90;13.93;;;;;;;-141.23;100.00;62281.09;4978585;28;20049;-71
2023/08/03 01:05:33;;;;;;;22.58;13.68;;;;;;;-141.23;100.00;62281.09;4952130;28;20051;-70
2023/08/03 01:07:59;;;;;;;23.73;13.10;;;;;;;-141.23;100.00;62281.09;4968429;28;20086;-70
2023/08/03 01:10:25;;;;;;;19.00;14.02;;;;;;;-141.23;100.00;62281.09;4952116;28;20067;-69
2023/08/03 01:12:51;;;;;;;26.50;13.65;;;;;;;-141.23;100.00;62281.09;4920860;28;20055;-71
2023/08/03 01:15:17;;;;;;;23.23;13.95;;;;;;;-141.23;100.00;62281.09;4951918;28;20097;-71
2023/08/03 01:17:44;;;;;;;18.27;13.60;;;;;;;-141.23;100.00;62281.09;4983781;28;20058;-71
2023/08/03 01:20:11;;;;;;;16.60;14.35;;;;;;;-141.23;100.00;62281.09;4959879;28;20046;-71
2023/08/03 01:22:43;;;;;;;21.25;15.15;;;;;;;-141.23;100.00;62281.09;4959911;28;20050;-70
2023/08/03 01:25:11;;;;;;;23.90;15.90;;;;;;;-141.23;100.00;62281.09;4959637;28;20074;-70
2023/08/03 01:27:38;;;;;;;24.90;15.30;;;;;;;-141.23;100.00;62281.09;4943581;28;20042;-71
2023/08/03 01:30:05;;;;;;;20.90;15.27;;;;;;;-141.23;100.00;62281.09;4958662;28;20050;-70
2023/08/03 01:32:32;;;;;;;21.73;15.32;;;;;;;-141.23;100.00;62281.09;4943201;28;20070;-69
2023/08/03 01:35:00;;;;;;;21.88;14.55;;;;;;;-141.23;100.00;62281.09;4974472;28;20042;-70
2023/08/03 01:37:26;;;;;;;17.70;13.73;;;;;;;-141.23;100.00;62281.09;4974421;28;20441;-70
2023/08/03 01:39:55;;;;;;;19.98;13.98;;;;;;;-141.23;100.00;62281.09;4959055;28;20046;-70
2023/08/03 01:42:23;;;;;;;17.55;13.77;;;;;;;-141.23;100.00;62281.09;4972509;28;20548;-70
2023/08/03 01:44:49;;;;;;;18.42;13.80;;;;;;;-141.23;100.00;62281.09;4998352;28;20484;-69
2023/08/03 01:47:15;;;;;;;16.60;12.98;;;;;;;-141.23;100.00;62281.09;4998748;28;20060;-69
2023/08/03 01:49:41;;;;;;;13.45;12.05;;;;;;;-141.23;100.00;62281.09;5015115;28;20373;-70
2023/08/03 01:52:07;;;;;;;14.50;12.85;;;;;;;-141.23;100.00;62281.09;5013908;28;20045;-70
2023/08/03 01:54:35;;;;;;;19.58;12.45;;;;;;;-141.23;100.00;62281.09;5014466;28;20041;-69
2023/08/03 01:57:01;;;;;;;15.32;10.60;;;;;;;-141.23;100.00;62281.09;5031066;28;20068;-69
2023/08/03 01:59:27;;;;;;;15.00;9.93;;;;;;;-141.23;100.00;62281.09;4998337;28;20042;-71
2023/08/03 02:01:54;;;;;;;16.73;11.63;;;;;;;-141.23;100.00;62281.09;4998251;28;20391;-69
2023/08/03 02:04:21;;;;;;;14.07;11.80;;;;;;;-141.23;100.00;62281.09;5030955;28;20133;-70
2023/08/03 02:06:49;;;;;;;17.15;11.10;;;;;;;-141.23;100.00;62281.09;5014556;28;20037;-70
2023/08/03 02:09:14;;;;;;;20.42;11.63;;;;;;;-141.23;100.00;62281.09;5014405;28;20099;-74
2023/08/03 02:11:40;;;;;;;14.77;10.60;;;;;;;-141.23;100.00;62281.09;4998186;28;20111;-69
2023/08/03 02:14:06;;;;;;;18.00;10.05;;;;;;;-141.23;100.00;62281.09;4997842;28;20069;-69
2023/08/03 02:16:32;;;;;;;20.05;10.50;;;;;;;-141.23;100.00;62281.09;4998047;28;20050;-69
2023/08/03 02:18:59;;;;;;;15.85;9.55;;;;;;;-141.23;100.00;62281.09;4997284;28;20416;-69
2023/08/03 02:21:26;;;;;;;12.55;10.10;;;;;;;-141.23;100.00;62281.09;5033200;28;20542;-69
2023/08/03 02:23:53;;;;;;;13.32;8.90;;;;;;;-141.23;100.00;62281.09;5000713;28;20095;-70
2023/08/03 02:26:19;;;;;;;15.38;9.32;;;;;;;-141.23;100.00;62281.09;5016606;28;20081;-70
2023/08/03 02:28:45;;;;;;;14.80;9.02;;;;;;;-141.23;100.00;62281.09;5019105;28;20082;-76
2023/08/03 02:31:13;;;;;;;19.05;8.88;;;;;;;-141.23;100.00;62281.09;5020862;28;20053;-69
2023/08/03 02:33:45;;;;;;;12.88;8.32;;;;;;;-141.23;100.00;62281.09;5021582;28;20051;-70
2023/08/03 02:36:18;;;;;;;15.73;8.00;;;;;;;-141.23;100.00;62281.09;5021614;28;20424;-71
2023/08/03 02:38:45;;;;;;;12.57;8.60;;;;;;;-141.23;100.00;62281.09;5037181;28;20139;-69
2023/08/03 02:41:13;;;;;;;15.25;9.30;;;;;;;-141.23;100.00;62281.09;5004731;28;20064;-69
2023/08/03 02:43:39;;;;;;;16.42;10.55;;;;;;;-141.23;100.00;62281.09;5003680;28;20044;-72
2023/08/03 02:46:05;;;;;;;16.23;10.60;;;;;;;-141.23;100.00;62281.09;5036610;28;20052;-70
2023/08/03 02:48:33;;;;;;;17.38;12.20;;;;;;;-141.23;100.00;62281.09;5006227;28;20041;-71
2023/08/03 02:51:03;;;;;;;19.40;11.63;;;;;;;-141.23;100.00;62281.09;5041461;28;20037;-72
2023/08/03 02:53:35;;;;;;;17.48;10.55;;;;;;;-141.23;100.00;62281.09;5021152;28;20064;-71
2023/08/03 02:56:02;;;;;;;18.10;11.45;;;;;;;-141.23;100.00;62281.09;5002476;28;20379;-71
2023/08/03 02:58:33;;;;;;;14.20;10.02;;;;;;;-141.23;100.00;62281.09;5019009;28;20057;-71
2023/08/03 03:01:04;;;;;;;18.17;10.27;;;;;;;-141.23;100.00;62281.09;5001848;28;20076;-72
2023/08/03 03:03:30;;;;;;;16.55;9.95;;;;;;;-141.23;100.00;62281.09;5017796;28;20049;-70
2023/08/03 03:05:56;;;;;;;13.45;9.57;;;;;;;-141.23;100.00;62281.09;5017260;28;20187;-71
2023/08/03 03:08:24;;;;;;;11.13;8.75;;;;;;;-141.23;100.00;62281.09;5001576;28;20083;-70
2023/08/03 03:10:56;;;;;;;11.27;8.50;;;;;;;-141.23;100.00;62281.09;4986541;28;20068;-70
2023/08/03 03:13:23;;;;;;;10.63;7.63;;;;;;;-141.23;100.00;62281.09;5000959;28;20042;-69
2023/08/03 03:15:49;;;;;;;10.45;7.35;;;;;;;-141.23;100.00;62281.09;5000644;28;20060;-71
2023/08/03 03:18:15;;;;;;;13.68;8.07;;;;;;;-141.23;100.00;62281.09;5017414;28;20037;-73
2023/08/03 03:20:42;;;;;;;14.82;8.52;;;;;;;-141.23;100.00;62281.09;5017804;28;20534;-71
2023/08/03 03:23:11;;;;;;;14.90;8.15;;;;;;;-141.23;100.00;62281.09;5018294;28;20062;-71
2023/08/03 03:25:40;;;;;;;15.02;8.63;;;;;;;-141.23;100.00;62281.09;5017493;28;20067;-68
2023/08/03 03:28:06;;;;;;;15.35;7.55;;;;;;;-141.23;100.00;62281.09;5002020;28;20053;-71
2023/08/03 03:30:37;;;;;;;17.98;8.45;;;;;;;-141.23;100.00;62281.09;5017313;28;20483;-71
2023/08/03 03:33:03;;;;;;;17.00;8.65;;;;;;;-141.23;100.00;62281.09;5001129;28;20080;-71
2023/08/03 03:35:29;;;;;;;9.90;8.25;;;;;;;-141.23;100.00;62281.09;4984626;28;20446;-71
2023/08/03 03:37:56;;;;;;;18.27;8.52;;;;;;;-141.23;100.00;62281.09;4985478;28;20132;-76
2023/08/03 03:40:28;;;;;;;16.95;7.68;;;;;;;-141.23;100.00;62281.09;5016819;28;20148;-70
2023/08/03 03:42:54;;;;;;;14.35;10.55;;;;;;;-141.23;100.00;62281.09;4984270;28;20075;-70
2023/08/03 03:45:22;;;;;;;18.45;8.55;;;;;;;-141.23;100.00;62281.09;5000446;28;20048;-71
2023/08/03 03:47:48;;;;;;;15.98;8.10;;;;;;;-141.23;100.00;62281.09;4984317;28;20442;-71
2023/08/03 03:50:14;;;;;;;11.82;7.78;;;;;;;-141.23;100.00;62281.09;5000177;28;20045;-72
2023/08/03 03:52:40;;;;;;;12.95;7.43;;;;;;;-141.23;100.00;62281.09;5000283;28;20474;-72
2023/08/03 03:55:07;;;;;;;13.60;7.10;;;;;;;-141.23;100.00;62281.09;5016324;28;20049;-71
2023/08/03 03:57:33;;;;;;;15.98;7.70;;;;;;;-141.23;100.00;62281.09;4999424;28;20068;-71
2023/08/03 03:59:59;;;;;;;10.18;7.32;;;;;;;-141.23;100.00;62281.09;5030833;28;20087;-72
2023/08/03 04:02:25;;;;;;;9.60;6.32;;;;;;;-141.23;100.00;62281.09;5015099;28;20052;-71
2023/08/03 04:04:55;;;;;;;12.60;6.85;;;;;;;-141.23;100.00;62281.09;5001520;28;20534;-72
2023/08/03 04:07:23;;;;;;;9.45;6.75;;;;;;;-141.23;100.00;62281.09;5000127;28;20132;-72
2023/08/03 04:09:49;;;;;;;12.77;6.13;;;;;;;-141.23;100.00;62281.09;5032851;28;20056;-72
2023/08/03 04:12:16;;;;;;;13.60;6.93;;;;;;;-141.23;100.00;62281.09;5016226;28;20081;-72
2023/08/03 04:14:42;;;;;;;12.73;6.78;;;;;;;-141.23;100.00;62281.09;5016047;28;20084;-72
2023/08/03 04:17:09;;;;;;;14.77;7.47;;;;;;;-141.23;100.00;62281.09;5016110;28;20049;-72
2023/08/03 04:19:39;;;;;;;16.47;6.50;;;;;;;-141.23;100.00;62281.09;5016305;28;20041;-72
2023/08/03 04:22:06;;;;;;;10.73;7.60;;;;;;;-141.23;100.00;62281.09;4999919;28;20106;-72
2023/08/03 04:24:32;;;;;;;11.82;6.45;;;;;;;-141.23;100.00;62281.09;4999944;28;20419;-72
2023/08/03 04:27:00;;;;;;;12.25;6.35;;;;;;;-141.23;100.00;62281.09;5000055;28;20453;-72
2023/08/03 04:29:26;;;;;;;17.88;7.68;;;;;;;-141.23;100.00;62281.09;5015837;28;20048;-72
2023/08/03 04:31:54;;;;;;;15.75;7.70;;;;;;;-141.23;100.00;62281.09;5015791;28;20041;-72
2023/08/03 04:34:22;;;;;;;17.73;7.60;;;;;;;-141.23;100.00;62281.09;5015718;28;20052;-72
2023/08/03 04:36:52;;;;;;;23.55;8.85;;;;;;;-141.23;100.00;62281.09;5000674;28;20052;-72
2023/08/03 04:39:19;;;;;;;22.52;8.48;;;;;;;-141.23;100.00;62281.09;4999394;28;20053;-72
2023/08/03 04:41:45;;;;;;;26.92;7.90;;;;;;;-141.23;100.00;62281.09;5015369;28;20341;-72
2023/08/03 04:44:13;;;;;;;16.63;8.40;;;;;;;-141.23;100.00;62281.09;4999738;28;20053;-72
2023/08/03 04:46:39;;;;;;;17.30;7.95;;;;;;;-141.23;100.00;62281.09;4999131;28;20045;-72
2023/08/03 04:49:10;;;;;;;13.55;6.80;;;;;;;-141.23;100.00;62281.09;5015359;28;20053;-72
2023/08/03 04:51:42;;;;;;;14.48;7.75;;;;;;;-141.23;100.00;62281.09;5000946;28;20045;-72
2023/08/03 04:54:14;;;;;;;15.00;7.00;;;;;;;-141.23;100.00;62281.09;5000898;28;20053;-72
2023/08/03 04:56:41;;;;;;;23.17;8.35;;;;;;;-141.23;100.00;62281.09;5015253;28;20476;-72
2023/08/03 04:59:08;;;;;;;13.93;7.30;;;;;;;-141.23;100.00;62281.09;4999065;28;20037;-72
2023/08/03 05:01:34;;;;;;;18.20;7.80;;;;;;;-141.23;100.00;62281.09;5015282;28;20060;-73
2023/08/03 05:04:03;;;;;;;33.65;8.50;;;;;;;-141.23;100.00;62281.09;4998837;28;20480;-72
2023/08/03 05:06:33;;;;;;;25.98;8.38;;;;;;;-141.23;100.00;62281.09;5014366;28;20109;-72
2023/08/03 05:09:00;;;;;;;21.67;8.63;;;;;;;-141.23;100.00;62281.09;4998530;28;20045;-72
2023/08/03 05:11:31;;;;;;;19.20;7.78;;;;;;;-141.23;100.00;62281.09;5031484;28;20041;-72
2023/08/03 05:13:57;;;;;;;15.85;7.88;;;;;;;-141.23;100.00;62281.09;4982851;28;20061;-72
2023/08/03 05:16:24;;;;;;;19.77;8.25;;;;;;;-141.23;100.00;62281.09;4998178;28;20391;-71
2023/08/03 05:18:51;;;;;;;17.85;7.68;;;;;;;-141.23;100.00;62281.09;5047423;28;20108;-72
2023/08/03 05:21:18;;;;;;;18.90;6.60;;;;;;;-141.23;100.00;62281.09;4998896;28;20045;-72
2023/08/03 05:23:45;;;;;;;22.85;7.22;;;;;;;-141.23;100.00;62281.09;4998546;28;20157;-72
2023/08/03 05:26:13;;;;;;;17.75;7.43;;;;;;;-141.23;100.00;62281.09;5014785;28;20555;-71
2023/08/03 05:28:40;;;;;;;18.70;7.15;;;;;;;-141.23;100.00;62281.09;4998988;28;20064;-72
2023/08/03 05:31:07;;;;;;;17.42;6.47;;;;;;;-141.23;100.00;62281.09;4999315;28;20202;-72
2023/08/03 05:33:35;;;;;;;22.15;6.18;;;;;;;-141.23;100.00;62281.09;4998001;28;20057;-72
2023/08/03 05:36:04;;;;;;;31.40;7.82;;;;;;;-141.23;100.00;62281.09;4997653;28;20056;-71
2023/08/03 05:38:32;;;;;;;18.10;6.97;;;;;;;-141.23;100.00;62281.09;5013695;28;20377;-73
2023/08/03 05:40:59;;;;;;;17.67;7.05;;;;;;;-141.23;100.00;62281.09;4980885;28;20079;-72
2023/08/03 05:43:27;;;;;;;13.13;5.90;;;;;;;-141.23;100.00;62281.09;4977575;28;20054;-71
2023/08/03 05:46:13;;;;;;;27.38;6.10;;;;;;;-141.23;100.00;62281.09;4993822;28;20054;-72
2023/08/03 05:48:39;;;;;;;22.48;5.72;;;;;;;-141.23;100.00;62281.09;4993822;28;20176;-71
2023/08/03 05:51:06;;;;;;;17.80;5.65;;;;;;;-141.23;100.00;62281.09;4993943;28;20049;-72
2023/08/03 05:53:32;;;;;;;21.80;5.60;;;;;;;-141.23;100.00;62281.09;4993828;28;20058;-72
2023/08/03 05:55:58;;;;;;;11.15;5.82;;;;;;;-141.23;100.00;62281.09;4993776;28;20054;-72
2023/08/03 05:58:28;;;;;;;14.65;4.93;;;;;;;-141.23;100.00;62281.09;5011036;28;20049;-72
2023/08/03 06:00:54;;;;;;;18.98;5.22;;;;;;;-141.23;100.00;62281.09;5010143;28;20062;-72
2023/08/03 06:03:20;;;;;;;16.38;4.90;;;;;;;-141.23;100.00;62281.09;4995394;28;20042;-72
2023/08/03 06:05:48;;;;;;;9.10;5.15;;;;;;;-141.23;100.00;62281.09;4981227;28;20156;-72
2023/08/03 06:08:19;;;;;;;10.73;4.45;;;;;;;-141.23;100.00;62281.09;4965331;28;20429;-72
2023/08/03 06:10:50;;;;;;;13.02;4.68;;;;;;;-141.23;100.00;62281.09;4991768;28;20046;-71
2023/08/03 06:13:45;;;;;;;11.55;4.60;;;;;;;-141.23;100.00;62281.09;4960540;28;20074;-71
2023/08/03 06:16:21;;;;;;;15.38;4.95;;;;;;;-141.23;100.00;62281.09;4947282;28;20060;-73
2023/08/03 06:18:50;;;;;;;16.85;5.30;;;;;;;-141.23;100.00;62281.09;4978292;28;20125;-72
2023/08/03 06:21:17;;;;;;;10.48;4.55;;;;;;;-141.23;100.00;62281.09;4991557;28;20590;-72
2023/08/03 06:23:45;;;;;;;12.98;4.80;;;;;;;-141.23;100.00;62281.09;4981128;28;20046;-72
2023/08/03 06:26:16;;;;;;;9.93;4.95;;;;;;;-141.23;100.00;62281.09;4988514;28;20452;-72
2023/08/03 06:28:58;;;;;;;11.80;4.85;;;;;;;-141.23;100.00;62281.09;4963099;28;20062;-72
2023/08/03 06:31:51;;;;;;;14.20;4.72;;;;;;;-141.23;100.00;62281.09;4978813;28;20420;-72
2023/08/03 06:34:21;;;;;;;10.90;4.38;;;;;;;-141.23;100.00;62281.09;4946349;28;20054;-73
2023/08/03 06:36:51;;;;;;;12.38;6.05;;;;;;;-141.23;100.00;62281.09;4972274;28;20390;-72
2023/08/03 06:39:19;;;;;;;;;;;;;;;-141.23;100.00;62281.09;4959105;28;20059;-72
2023/08/03 06:41:58;;;;;;;9.40;3.50;;;;;;;-141.23;100.00;62281.09;4976252;28;19965;-71
2023/08/03 06:44:24;;;;;;;12.13;4.47;;;;;;;-141.23;100.00;62281.09;4958916;28;20046;-71
2023/08/03 06:46:52;;;;;;;12.10;4.50;;;;;;;-141.23;100.00;62281.09;4965413;28;20065;-71
2023/08/03 06:49:18;;;;;;;17.10;5.25;;;;;;;-141.23;100.00;62281.09;4961773;28;20054;-72
2023/08/03 06:51:46;;;;;;;13.38;4.30;;;;;;;-141.23;100.00;62281.09;4961394;28;20480;-73
2023/08/03 06:54:12;;;;;;;11.05;4.53;;;;;;;-141.23;100.00;62281.09;4961627;28;20520;-70
2023/08/03 06:56:38;;;;;;;11.80;4.80;;;;;;;-141.23;100.00;62281.09;4977637;28;20050;-71
2023/08/03 06:59:03;;;;;;;12.52;4.10;;;;;;;-141.23;100.00;62281.09;4945098;28;20064;-71
2023/08/03 07:01:29;;;;;;;8.77;4.00;;;;;;;-141.23;100.00;62281.09;4976943;28;20069;-70
2023/08/03 07:03:56;;;;;;;11.63;4.07;;;;;;;-141.23;100.00;62281.09;4961214;28;20048;-72
2023/08/03 07:06:21;;;;;;;7.63;3.70;;;;;;;-141.23;100.00;62281.09;4977090;28;20543;-70
2023/08/03 07:08:48;;;;;;;12.05;3.97;;;;;;;-141.23;100.00;62281.09;4949996;28;20149;-72
2023/08/03 07:11:15;;;;;;;11.02;4.13;;;;;;;-141.23;100.00;62281.09;4954024;28;20153;-72
2023/08/03 07:13:43;;;;;;;8.38;4.10;;;;;;;-141.23;100.00;62281.09;4973599;28;20057;-72
2023/08/03 07:16:10;;;;;;;7.82;3.70;;;;;;;-141.23;100.00;62281.09;4960905;28;20038;-71
2023/08/03 07:18:37;;;;;;;12.13;4.30;;;;;;;-141.23;100.00;62281.09;5048949;28;20053;-74
2023/08/03 07:21:06;;;;;;;7.38;3.85;;;;;;;-141.23;100.00;62281.09;5024364;28;20522;-72
2023/08/03 07:23:34;;;;;;;8.80;4.65;;;;;;;-141.23;100.00;62281.09;4997977;28;20052;-74
2023/08/03 07:26:01;;;;;;;7.55;4.15;;;;;;;-141.23;100.00;62281.09;5030131;28;20059;-71
2023/08/03 07:28:29;;;;;;;10.32;3.97;;;;;;;-141.23;100.00;62281.09;5067498;28;20209;-72
2023/08/03 07:30:55;;;;;;;9.98;3.50;;;;;;;-141.23;100.00;62281.09;5050136;28;20534;-71
2023/08/03 07:33:21;;;;;;;9.23;3.38;;;;;;;-141.23;100.00;62281.09;5034293;28;20039;-70
2023/08/03 07:35:47;;;;;;;9.63;3.03;;;;;;;-141.23;100.00;62281.09;5034617;28;20494;-71
2023/08/03 07:38:13;;;;;;;9.48;3.30;;;;;;;-141.23;100.00;62281.09;5040652;28;20056;-72
2023/08/03 07:40:39;;;;;;;4.72;3.08;;;;;;;-141.23;100.00;62281.09;5042274;28;20056;-71
2023/08/03 07:43:06;;;;;;;17.50;3.75;;;;;;;-141.23;100.00;62281.09;5058159;28;20056;-71
2023/08/03 07:45:32;;;;;;;9.05;3.05;;;;;;;-141.23;100.00;62281.09;5080885;28;20040;-71
2023/08/03 07:47:58;;;;;;;8.73;3.45;;;;;;;-141.23;100.00;62281.09;5069519;28;20051;-73
2023/08/03 07:50:25;;;;;;;5.35;2.55;;;;;;;-141.23;100.00;62281.09;5013602;28;20056;-72
2023/08/03 07:52:51;;;;;;;12.75;3.38;;;;;;;-141.23;100.00;62281.09;5026251;28;20049;-72
2023/08/03 07:55:19;;;;;;;17.75;3.30;;;;;;;-141.23;100.00;62281.09;5033942;28;20103;-72
2023/08/03 07:57:45;;;;;;;14.05;2.92;;;;;;;-141.23;100.00;62281.09;5017353;28;20118;-72
2023/08/03 08:00:13;;;;;;;9.75;2.75;;;;;;;-141.23;100.00;62281.09;5011737;28;20037;-72
2023/08/03 08:02:38;;;;;;;7.95;3.47;;;;;;;-141.23;100.00;62281.09;5026266;28;20432;-73
2023/08/03 08:05:05;;;;;;;9.73;3.30;;;;;;;-141.23;100.00;62281.09;4995985;28;20070;-73
2023/08/03 08:07:31;;;;;;;9.13;2.83;;;;;;;-141.23;100.00;62281.09;4980368;28;20037;-72
2023/08/03 08:09:57;;;;;;;12.55;2.90;;;;;;;-141.23;100.00;62281.09;5011883;28;20498;-71
2023/08/03 08:12:24;;;;;;;6.57;2.83;;;;;;;-141.23;100.00;62281.09;5013380;28;20048;-70
2023/08/03 08:14:50;;;;;;;14.18;3.33;;;;;;;-141.23;100.00;62281.09;5018056;28;20063;-71
2023/08/03 08:17:16;;;;;;;10.23;3.47;;;;;;;-141.23;100.00;62281.09;5002010;28;20145;-71
2023/08/03 08:19:44;;;;;;;4.43;2.78;;;;;;;-141.23;100.00;62281.09;5015858;28;20056;-72
2023/08/03 08:22:11;;;;;;;7.60;3.08;;;;;;;-141.23;100.00;62281.09;5017453;28;20033;-72
2023/08/03 08:24:38;;;;;;;8.38;3.30;;;;;;;-141.23;100.00;62281.09;5044250;28;20061;-73
2023/08/03 08:27:04;;;;;;;6.57;2.63;;;;;;;-141.23;100.00;62281.09;5023111;28;20067;-73
2023/08/03 08:29:31;;;;;;;10.38;3.10;;;;;;;-141.23;100.00;62281.09;5012229;28;20122;-73
2023/08/03 08:31:58;;;;;;;8.48;2.95;;;;;;;-141.23;100.00;62281.09;5034271;28;20067;-73
2023/08/03 08:34:25;;;;;;;19.02;3.85;;;;;;;-141.23;100.00;62281.09;5014949;28;20045;-73
2023/08/03 08:36:55;;;;;;;6.05;3.40;;;;;;;-141.23;100.00;62281.09;5011916;28;20054;-75
2023/08/03 08:39:21;;;;;;;8.67;3.23;;;;;;;-141.23;100.00;62281.09;5028840;28;20061;-75
2023/08/03 08:41:47;;;;;;;12.13;2.90;;;;;;;-141.23;100.00;62281.09;5013804;28;20384;-75
2023/08/03 08:44:16;;;;;;;7.25;2.80;;;;;;;-141.23;100.00;62281.09;4996301;28;20057;-76
2023/08/03 08:46:43;;;;;;;10.77;2.25;;;;;;;-141.23;100.00;62281.09;4966369;28;20045;-75
2023/08/03 08:49:11;;;;;;;4.95;2.33;;;;;;;-141.23;100.00;62281.09;5014166;28;20550;-74
2023/08/03 08:51:40;;;;;;;8.07;3.13;;;;;;;-141.23;100.00;62281.09;4997954;28;20061;-74
2023/08/03 08:54:06;;;;;;;17.73;3.10;;;;;;;-141.23;100.00;62281.09;4998184;28;20061;-74
2023/08/03 08:56:33;;;;;;;9.25;3.30;;;;;;;-141.23;100.00;62281.09;5033951;28;20538;-74
2023/08/03 08:59:00;;;;;;;7.95;3.10;;;;;;;-141.23;100.00;62281.09;5001168;28;20080;-74
2023/08/03 09:01:25;;;;;;;11.60;3.30;;;;;;;-141.23;100.00;62281.09;5033783;28;20608;-75
2023/08/03 09:03:52;;;;;;;5.53;2.72;;;;;;;-141.23;100.00;62281.09;5001747;28;20459;-75
2023/08/03 09:06:21;;;;;;;11.57;3.58;;;;;;;-141.23;100.00;62281.09;5011329;28;20049;-75
2023/08/03 09:08:55;;;;;;;11.73;3.45;;;;;;;-141.23;100.00;62281.09;4965260;28;20079;-75
2023/08/03 09:11:37;;;;;;;9.48;3.40;;;;;;;-141.23;100.00;62281.09;5014173;28;20065;-75
2023/08/03 09:14:05;;;;;;;8.68;3.00;;;;;;;-141.23;100.00;62281.09;4994205;28;20054;-75
2023/08/03 09:16:31;;;;;;;8.10;2.90;;;;;;;-141.23;100.00;62281.09;4994209;28;20235;-76
2023/08/03 09:18:58;;;;;;;6.00;2.65;;;;;;;-141.23;100.00;62281.09;4978054;28;20041;-76
2023/08/03 09:21:23;;;;;;;11.45;2.78;;;;;;;-141.23;100.00;62281.09;5010796;28;20053;-75
2023/08/03 09:23:49;;;;;;;6.93;2.67;;;;;;;-141.23;100.00;62281.09;4994601;28;20071;-76
2023/08/03 09:26:21;;;;;;;8.48;2.60;;;;;;;-141.23;100.00;62281.09;4992882;28;20159;-76
2023/08/03 09:28:48;;;;;;;9.10;1.98;;;;;;;-141.23;100.00;62281.09;4998749;28;20391;-77
2023/08/03 09:31:21;;;;;;;6.35;2.60;;;;;;;-141.23;100.00;62281.09;4998695;28;20045;-78
2023/08/03 09:34:00;;;;;;;6.82;2.10;;;;;;;-141.23;100.00;62281.09;4998758;28;20046;-77
2023/08/03 09:36:28;;;;;;;5.13;2.63;;;;;;;-141.23;100.00;62281.09;5000063;28;20052;-77
2023/08/03 09:39:14;;;;;;;8.15;2.38;;;;;;;-141.23;100.00;62281.09;5016688;28;20056;-77
2023/08/03 09:41:40;;;;;;;8.60;2.72;;;;;;;-141.23;100.00;62281.09;4983307;28;20036;-75
2023/08/03 09:44:07;;;;;;;7.53;2.42;;;;;;;-141.23;100.00;62281.09;5013905;28;20063;-76
2023/08/03 09:46:34;;;;;;;9.18;2.60;;;;;;;-141.23;100.00;62281.09;4965419;28;20147;-76
2023/08/03 09:49:01;;;;;;;6.40;2.25;;;;;;;-141.23;100.00;62281.09;4997703;28;20132;-76
2023/08/03 09:51:30;;;;;;;9.80;2.58;;;;;;;-141.23;100.00;62281.09;5014147;28;20041;-75
2023/08/03 09:54:05;;;;;;;5.53;2.60;;;;;;;-141.23;100.00;62281.09;4997559;28;20111;-75
2023/08/03 09:56:35;;;;;;;5.28;2.72;;;;;;;-141.23;100.00;62281.09;4997487;28;20053;-74
2023/08/03 09:59:06;;;;;;;10.13;3.15;;;;;;;-141.23;100.00;62281.09;4982246;28;20057;-74
2023/08/03 10:01:34;;;;;;;16.38;4.78;;;;;;;-141.23;100.00;62281.09;5028052;28;20138;-75
2023/08/03 10:04:04;;;;;;;12.15;3.13;;;;;;;-141.23;100.00;62281.09;4981785;28;20057;-79
2023/08/03 10:06:35;;;;;;;9.40;3.03;;;;;;;-141.23;100.00;62281.09;5016855;28;20403;-75
2023/08/03 10:09:07;;;;;;;16.92;4.55;;;;;;;-141.23;100.00;62281.09;5017028;28;20199;-75
2023/08/03 10:11:40;;;;;;;9.20;3.20;;;;;;;-141.23;100.00;62281.09;5001163;28;20080;-75
2023/08/03 10:14:10;;;;;;;10.65;4.10;;;;;;;-141.23;100.00;62281.09;5001491;28;20057;-75
2023/08/03 10:16:36;;;;;;;5.82;2.70;;;;;;;-141.23;100.00;62281.09;4962056;28;20058;-76
2023/08/03 10:19:03;;;;;;;5.40;2.90;;;;;;;-141.23;100.00;62281.09;4978797;28;20212;-73
2023/08/03 10:21:29;;;;;;;8.68;3.03;;;;;;;-141.23;100.00;62281.09;4978188;28;20420;-73
2023/08/03 10:24:32;;;;;;;9.70;4.15;;;;;;;-141.23;100.00;62281.09;4962291;28;20052;-74
2023/08/03 10:27:17;;;;;;;11.27;2.78;;;;;;;-141.23;100.00;62281.09;4994653;28;20133;-73
2023/08/03 10:29:57;;;;;;;5.57;2.50;;;;;;;-141.23;100.00;62281.09;4962962;28;20049;-74
2023/08/03 10:32:27;;;;;;;8.88;2.90;;;;;;;-141.23;100.00;62281.09;5011248;28;20038;-73
2023/08/03 10:34:58;;;;;;;10.95;3.40;;;;;;;-141.23;100.00;62281.09;4978524;28;20054;-72
2023/08/03 10:37:27;;;;;;;9.05;3.28;;;;;;;-141.23;100.00;62281.09;4977966;28;20541;-73
2023/08/03 10:39:54;;;;;;;10.13;3.38;;;;;;;-141.23;100.00;62281.09;4985790;28;20096;-72
2023/08/03 10:42:34;;;;;;;4.82;2.88;;;;;;;-141.23;100.00;62281.09;4978076;28;20081;-73
2023/08/03 10:45:24;;;;;;;6.82;2.50;;;;;;;-141.23;100.00;62281.09;4989647;28;20152;-75
2023/08/03 10:47:50;;;;;;;6.80;2.40;;;;;;;-141.23;100.00;62281.09;5029181;28;20470;-72
2023/08/03 10:50:22;;;;;;;7.18;2.60;;;;;;;-141.23;100.00;62281.09;5037447;28;20048;-72
2023/08/03 10:52:51;;;;;;;11.35;2.90;;;;;;;-141.23;100.00;62281.09;5025475;28;20052;-73
2023/08/03 10:55:26;;;;;;;4.67;2.53;;;;;;;-141.23;100.00;62281.09;5070669;28;20052;-73
2023/08/03 10:57:55;;;;;;;9.40;3.00;;;;;;;-141.23;100.00;62281.09;5036162;28;20098;-75
2023/08/03 11:00:22;;;;;;;5.68;2.40;;;;;;;-141.23;100.00;62281.09;5051275;28;20411;-73
2023/08/03 11:02:50;;;;;;;5.30;2.60;;;;;;;-141.23;100.00;62281.09;5017118;28;20147;-75
2023/08/03 11:05:16;;;;;;;2.47;2.13;;;;;;;-141.23;100.00;62281.09;5048724;28;20079;-75
2023/08/03 11:07:44;;;;;;;6.50;2.70;;;;;;;-141.23;100.00;62281.09;5067181;28;20083;-74